AirNav   Air Wisconsin Up To $57,000 Bonus
 
 498 users online  

MO41 Landing Pad
Troy, Missouri, USA

GOING TO TROY?


FAA INFORMATION EFFECTIVE 07 NOVEMBER 2019

Location

FAA Identifier: MO41
Lat/Long: 38-58-55.6700N 090-57-47.1100W
38-58.927833N 090-57.785167W
38.9821306,-90.9630861
(estimated)
Elevation: 520 ft. / 158 m (estimated)
Variation: 01E (1995)
Time zone: UTC -6 (UTC -5 during Daylight Saving Time)
Zip code: 63379

Heliport Operations

Heliport use: Private use, MEDICAL USE.
Activation date: 10/1997
Control tower: no
ARTCC: KANSAS CITY CENTER
FSS: SAINT LOUIS FLIGHT SERVICE STATION
Attendance: CONTINUOUS
Wind indicator: yes
Segmented circle: no
Lights: FOR PERIMETER AND FLOOD LGTS CALL 314-528-8551.

Nearby radio navigation aids

VOR radial/distance  VOR name  Freq  Var
FTZr356/17.3FORISTELL VORTAC110.8005E
STLr287/23.6ST LOUIS VORTAC117.4001E

Heliport Services

Runway Information

Helipad H1

Dimensions: 50 x 50 ft. / 15 x 15 m
Surface: concrete
Runway edge lights: PERI
INGROUND GREEN LED LGTS AND FLOOD LGTS.
Latitude: 38-58.927833N
Longitude: 090-57.785167W
Elevation: 520.0 ft.
Traffic pattern: leftleft

Heliport Ownership and Management from official FAA records

Ownership: Privately-owned
Owner: LINCOLN COUNTY MEMORIAL HOSP.
1000 EAST CHERRY STREET
TROY, MO 63379
Phone 314-528-8551
Manager: ED JACQUIN.
1000 EAST CHERRY STREET
TROY, MO 63379
Phone 314-528-8551

Additional Remarks

OWNER DESIRES HELIPORT NOT BE CHARTED.
FOR CD CTC ST LOUIS APCH AT 314-890-1018.

Instrument Procedures

There are no published instrument procedures at MO41.

Some nearby airports with instrument procedures:

KFYG - Washington Regional Airport (24 nm S)
KSUS - Spirit of St Louis Airport (24 nm SE)
KSET - St Charles County Smartt Airport (25 nm E)
H19 - Bowling Green Municipal Airport (26 nm NW)
1H0 - Creve Coeur Airport (26 nm SE)
 
Loc | Ops | Rwys | IFR | FBO | Links
Com | Nav | Svcs | Stats | Notes

Kansas City Aviation Department
 
Area around MO41 (Landing Pad)
 
Road maps at: MapQuest Bing Google
 
Aerial photo
No photo
 
Sectional chart

 
Airport distance calculator
Flying to Landing Pad? Find the distance to fly.

From to MO41

Sunrise and sunset
Times for 11-Nov-2019
 Local
(UTC-6)
 Zulu
(UTC)
Morning civil twilight06:1512:15
Sunrise06:4312:43
Sunset16:5322:53
Evening civil twilight17:2123:21

Current date and time
Zulu (UTC)  12-Nov-2019 05:59:10
Local (UTC-6)  11-Nov-2019 23:59:10
 
METAR
KFYG 
24nm S 
120535Z AUTO 33010KT 10SM BKN034 OVC040 M08/M13 A3057 RMK AO2
KSUS 
25nm SE 
120554Z AUTO 32012G18KT 10SM CLR M08/M14 A3057 RMK AO2 SLP362 T10831139 11039 21083 400721083 51013 $
KSET 
25nm E 
120554Z AUTO A3056 RMK AO2 SLPNO 51013 PWINO FZRANO $
KSTL 
31nm SE 
120551Z 33013G24KT 10SM FEW031 M09/M15 A3054 RMK AO2 SLP358 4/002 60000 T10891150 11044 21089 400671089 51012 $
KPPQ 
40nm N 
120535Z AUTO 32011G16KT 10SM CLR M10/M14 A3056 RMK AO2 T11001144
KMYJ 
41nm W 
120535Z AUTO 32013KT 10SM OVC028 M09/M14 A3059 RMK AO2
KALN 
44nm E 
120535Z AUTO 31008G18KT 10SM CLR M09/M13 A3054 RMK AO2 T10931133
KCPS 
45nm SE 
120553Z AUTO 34015G21KT 10SM BKN031 M08/M14 A3055 RMK AO2 PK WND 34028/0455 SLP352 T10831139 11039 21083 400671083 51013
TAF
KSUS 
25nm SE 
120131Z 1202/1224 34014G24KT P6SM SCT045 FM121200 33007KT P6SM FEW250
NOTAMs
Click for the latest NOTAMs
NOTAMs are issued by the DoD/FAA and will open in a separate window not controlled by AirNav.

 

 
 

Would you like to see your business listed on this page?

 If your business provides an interesting product or service to pilots, flight crews, aircraft, or users of the Landing Pad, you should consider listing it here.  To start the listing process, click on the button below
 
Add a business
 

Other Pages about Landing Pad

Update a link
 
Copyright © AirNav, LLC. All rights reserved. Privacy Policy  Contact